createdAt,value
2019-02-21T00:00:23.874Z,22.77
2019-02-21T00:02:50.177Z,21.23
2019-02-21T00:05:19.849Z,21.63
2019-02-21T00:07:49.520Z,22.80
2019-02-21T00:10:19.336Z,21.50
2019-02-21T00:12:48.986Z,20.67
2019-02-21T00:15:18.734Z,21.27
2019-02-21T00:17:48.563Z,21.50
2019-02-21T00:20:18.399Z,20.87
2019-02-21T00:22:48.077Z,21.90
2019-02-21T00:25:17.832Z,21.40
2019-02-21T00:27:47.531Z,21.50
2019-02-21T00:30:17.253Z,21.10
2019-02-21T00:32:46.975Z,21.27
2019-02-21T00:35:16.226Z,20.17
2019-02-21T00:37:45.775Z,18.93
2019-02-21T00:40:14.990Z,20.23
2019-02-21T00:42:44.246Z,19.67
2019-02-21T00:45:13.855Z,19.80
2019-02-21T00:47:43.522Z,19.73
2019-02-21T00:50:12.938Z,26.63
2019-02-21T00:52:42.162Z,22.60
2019-02-21T00:55:11.829Z,20.67
2019-02-21T00:57:41.607Z,19.40
2019-02-21T01:00:12.463Z,18.53
2019-02-21T01:02:41.635Z,19.10
2019-02-21T01:05:11.446Z,17.90
2019-02-21T01:07:40.803Z,19.40
2019-02-21T01:10:10.879Z,17.70
2019-02-21T01:12:40.575Z,16.20
2019-02-21T01:15:10.615Z,17.27
2019-02-21T01:17:40.582Z,17.00
2019-02-21T01:20:10.428Z,16.90
2019-02-21T01:22:39.687Z,17.67
2019-02-21T01:25:08.930Z,16.67
2019-02-21T01:27:38.167Z,17.33
2019-02-21T01:30:07.466Z,16.73
2019-02-21T01:32:36.733Z,16.97
2019-02-21T01:35:06.119Z,16.87
2019-02-21T01:37:35.284Z,16.40
2019-02-21T01:40:04.715Z,16.43
2019-02-21T01:42:33.853Z,16.23
2019-02-21T01:45:03.470Z,16.27
2019-02-21T01:47:33.345Z,16.03
2019-02-21T01:50:02.705Z,16.23
2019-02-21T01:52:33.634Z,16.60
2019-02-21T01:55:03.526Z,16.47
2019-02-21T01:57:32.793Z,16.07
2019-02-21T02:00:02.032Z,16.27
2019-02-21T02:02:32.116Z,16.80
2019-02-21T02:05:02.172Z,15.57
2019-02-21T02:07:31.336Z,16.13
2019-02-21T02:10:00.579Z,17.17
2019-02-21T02:12:30.022Z,16.13
2019-02-21T02:14:59.772Z,15.83
2019-02-21T02:17:29.896Z,16.20
2019-02-21T02:19:59.494Z,15.80
2019-02-21T02:22:29.162Z,16.53
2019-02-21T02:24:58.399Z,15.80
2019-02-21T02:27:27.688Z,16.17
2019-02-21T02:29:56.828Z,16.70
2019-02-21T02:32:26.075Z,15.47
2019-02-21T02:34:55.210Z,17.47
2019-02-21T02:37:24.442Z,16.50
2019-02-21T02:39:54.279Z,16.53
2019-02-21T02:42:23.602Z,16.53
2019-02-21T02:44:53.157Z,16.50
2019-02-21T02:47:23.874Z,17.03
2019-02-21T02:49:53.609Z,17.23
2019-02-21T02:52:23.345Z,17.53
2019-02-21T02:54:53.079Z,17.27
2019-02-21T02:57:22.824Z,18.10
2019-02-21T02:59:52.159Z,17.40
2019-02-21T03:02:21.916Z,17.40
2019-02-21T03:04:51.296Z,18.03
2019-02-21T03:07:20.554Z,17.17
2019-02-21T03:09:51.162Z,18.23
2019-02-21T03:12:20.937Z,18.10
2019-02-21T03:14:50.661Z,17.93
2019-02-21T03:17:20.333Z,18.63
2019-02-21T03:19:50.024Z,18.73
2019-02-21T03:22:19.751Z,18.77
2019-02-21T03:24:49.026Z,18.27
2019-02-21T03:27:18.204Z,19.13
2019-02-21T03:29:47.919Z,19.03
2019-02-21T03:32:17.205Z,19.50
2019-02-21T03:34:46.381Z,18.80
2019-02-21T03:37:15.832Z,19.63
2019-02-21T03:39:45.568Z,18.30
2019-02-21T03:42:14.924Z,18.73
2019-02-21T03:44:44.074Z,19.60
2019-02-21T03:47:13.713Z,20.00
2019-02-21T03:49:43.456Z,20.13
2019-02-21T03:52:13.219Z,20.47
2019-02-21T03:54:42.494Z,19.83
2019-02-21T03:57:11.751Z,20.43
2019-02-21T03:59:41.443Z,20.40
2019-02-21T04:02:10.724Z,19.90
2019-02-21T04:04:39.927Z,19.77
2019-02-21T04:07:09.346Z,21.20
2019-02-21T04:09:38.911Z,21.73
2019-02-21T04:12:08.745Z,20.63
2019-02-21T04:14:38.115Z,21.13
2019-02-21T04:17:07.319Z,21.57
2019-02-21T04:19:37.090Z,21.63
2019-02-21T04:22:06.852Z,23.13
2019-02-21T04:24:36.129Z,22.50
2019-02-21T04:27:05.399Z,24.47
2019-02-21T04:29:34.671Z,23.10
2019-02-21T04:32:16.169Z,24.93
2019-02-21T04:34:35.955Z,24.27
2019-02-21T04:37:05.112Z,23.73
2019-02-21T04:39:34.231Z,23.50
2019-02-21T04:42:03.348Z,24.63
2019-02-21T04:44:32.919Z,23.73
2019-02-21T04:47:02.191Z,23.80
2019-02-21T04:49:31.875Z,26.00
2019-02-21T04:52:01.174Z,24.63
2019-02-21T04:54:30.336Z,25.10
2019-02-21T04:57:00.221Z,26.00
2019-02-21T04:59:30.012Z,25.07
2019-02-21T05:01:59.727Z,25.83
2019-02-21T05:04:29.383Z,24.90
2019-02-21T05:06:58.639Z,26.80
2019-02-21T05:09:28.313Z,24.17
2019-02-21T05:11:57.662Z,25.87
2019-02-21T05:14:27.271Z,27.10
2019-02-21T05:16:56.996Z,25.50
2019-02-21T05:19:26.690Z,26.63
2019-02-21T05:21:55.911Z,26.33
2019-02-21T05:24:25.187Z,25.60
2019-02-21T05:26:59.371Z,25.57
2019-02-21T05:29:28.697Z,27.60
2019-02-21T05:32:40.610Z,27.93
2019-02-21T05:35:10.461Z,27.07
2019-02-21T05:37:51.210Z,28.77
2019-02-21T05:40:43.452Z,29.27
2019-02-21T05:43:33.020Z,27.63
2019-02-21T05:46:21.549Z,27.50
2019-02-21T05:48:59.517Z,28.17
2019-02-21T05:51:39.574Z,28.83
2019-02-21T05:54:43.038Z,28.90
2019-02-21T05:57:30.353Z,28.60
2019-02-21T06:00:22.724Z,28.60
2019-02-21T06:03:06.950Z,28.57
2019-02-21T06:05:52.187Z,29.43
2019-02-21T06:08:32.059Z,29.80
2019-02-21T06:11:18.999Z,31.27
2019-02-21T06:17:23.611Z,30.00
2019-02-21T06:20:33.747Z,31.73
2019-02-21T06:23:28.690Z,30.23
2019-02-21T06:26:09.071Z,32.07
2019-02-21T06:29:03.385Z,32.33
2019-02-21T06:31:33.073Z,32.23
2019-02-21T06:34:02.440Z,33.77
2019-02-21T06:36:31.877Z,32.87
2019-02-21T06:39:01.109Z,33.13
2019-02-21T06:41:32.459Z,33.63
2019-02-21T06:44:02.200Z,32.17
2019-02-21T06:46:31.605Z,33.17
2019-02-21T06:49:00.847Z,33.20
2019-02-21T06:51:30.516Z,33.47
2019-02-21T06:53:59.814Z,34.27
2019-02-21T06:56:29.090Z,35.10
2019-02-21T06:58:58.355Z,34.70
2019-02-21T07:01:29.531Z,33.13
2019-02-21T07:04:01.645Z,33.30
2019-02-21T07:06:32.303Z,34.20
2019-02-21T07:09:01.386Z,33.07
2019-02-21T07:11:33.178Z,34.90
2019-02-21T07:14:03.241Z,34.43
2019-02-21T07:16:33.130Z,33.50
2019-02-21T07:19:02.968Z,33.83
2019-02-21T07:21:32.726Z,33.73
2019-02-21T07:24:02.126Z,32.60
2019-02-21T07:26:31.379Z,34.10
2019-02-21T07:29:00.562Z,32.77
2019-02-21T07:31:32.536Z,34.00
2019-02-21T07:34:01.813Z,33.17
2019-02-21T07:36:32.168Z,32.93
2019-02-21T07:39:16.177Z,34.43
2019-02-21T07:41:33.915Z,33.60
2019-02-21T07:44:11.683Z,34.33
2019-02-21T07:46:34.638Z,34.87
2019-02-21T07:49:04.458Z,33.60
2019-02-21T07:51:36.031Z,36.90
2019-02-21T07:54:08.695Z,41.73
2019-02-21T07:56:41.921Z,33.10
2019-02-21T07:59:12.015Z,32.17
2019-02-21T08:01:41.799Z,32.90
2019-02-21T08:04:11.422Z,31.70
2019-02-21T08:06:41.310Z,32.73
2019-02-21T08:09:10.567Z,32.47
2019-02-21T08:11:40.274Z,33.13
2019-02-21T08:14:10.924Z,34.27
2019-02-21T08:16:40.833Z,34.53
2019-02-21T08:19:10.566Z,33.40
2019-02-21T08:21:43.272Z,34.03
2019-02-21T08:24:11.795Z,32.90
2019-02-21T08:26:41.503Z,31.33
2019-02-21T08:29:10.746Z,31.97
2019-02-21T08:31:39.900Z,32.70
2019-02-21T08:34:13.705Z,32.13
2019-02-21T08:36:43.460Z,32.90
2019-02-21T08:39:14.614Z,31.40
2019-02-21T08:41:44.456Z,33.03
2019-02-21T08:44:14.214Z,31.27
2019-02-21T08:46:43.965Z,30.77
2019-02-21T08:49:13.749Z,31.30
2019-02-21T08:51:43.979Z,31.60
2019-02-21T08:54:14.777Z,31.17
2019-02-21T08:56:44.203Z,31.00
2019-02-21T08:59:13.645Z,32.03
2019-02-21T09:01:43.492Z,30.57
2019-02-21T09:04:26.466Z,30.00
2019-02-21T09:06:44.249Z,30.23
2019-02-21T09:09:14.304Z,28.80
2019-02-21T09:11:44.212Z,28.27
2019-02-21T09:14:13.910Z,28.13
2019-02-21T09:16:43.920Z,28.60
2019-02-21T09:19:13.243Z,28.83
2019-02-21T09:21:42.659Z,27.80
2019-02-21T09:24:13.734Z,26.90
2019-02-21T09:26:44.108Z,28.33
2019-02-21T09:29:14.634Z,28.93
2019-02-21T09:31:45.539Z,27.40
2019-02-21T09:34:21.050Z,27.73
2019-02-21T09:36:46.553Z,27.37
2019-02-21T09:39:16.761Z,27.20
2019-02-21T09:41:46.733Z,26.60
2019-02-21T09:44:18.159Z,27.50
2019-02-21T09:46:47.069Z,26.77
2019-02-21T09:49:16.814Z,26.13
2019-02-21T09:51:47.769Z,25.23
2019-02-21T09:54:19.102Z,25.83
2019-02-21T09:56:52.815Z,25.00
2019-02-21T09:59:21.436Z,24.33
2019-02-21T10:01:52.036Z,24.20
2019-02-21T10:04:31.905Z,24.93
2019-02-21T10:06:54.055Z,25.93
2019-02-21T10:09:23.713Z,24.63
2019-02-21T10:11:53.699Z,26.00
2019-02-21T10:14:23.790Z,26.33
2019-02-21T10:16:53.615Z,24.13
2019-02-21T10:19:24.560Z,23.20
2019-02-21T10:21:55.406Z,23.63
2019-02-21T10:24:25.370Z,24.80
2019-02-21T10:26:55.397Z,25.20
2019-02-21T10:29:25.319Z,24.93
2019-02-21T10:31:55.085Z,24.20
2019-02-21T10:34:24.367Z,24.90
2019-02-21T10:36:54.269Z,25.43
2019-02-21T10:39:23.642Z,23.93
2019-02-21T10:41:53.975Z,24.43
2019-02-21T10:44:23.782Z,25.17
2019-02-21T10:46:53.588Z,24.87
2019-02-21T10:49:23.394Z,24.57
2019-02-21T10:51:53.134Z,24.67
2019-02-21T10:54:23.944Z,24.13
2019-02-21T10:56:53.659Z,26.00
2019-02-21T10:59:23.448Z,25.43
2019-02-21T11:01:54.924Z,26.23
2019-02-21T11:04:24.244Z,25.77
2019-02-21T11:06:53.562Z,25.00
2019-02-21T11:09:23.959Z,25.20
2019-02-21T11:11:53.872Z,24.83
2019-02-21T11:14:23.721Z,25.50
2019-02-21T11:16:53.567Z,25.97
2019-02-21T11:19:23.382Z,25.20
2019-02-21T11:21:53.162Z,27.97
2019-02-21T11:24:22.409Z,28.43
2019-02-21T11:26:51.714Z,27.43
2019-02-21T11:29:21.509Z,28.60
2019-02-21T11:31:51.812Z,28.33
2019-02-21T11:34:21.512Z,28.57
2019-02-21T11:36:50.812Z,27.30
2019-02-21T11:39:21.586Z,27.73
2019-02-21T11:41:51.494Z,27.27
2019-02-21T11:44:21.237Z,28.27
2019-02-21T11:46:50.944Z,28.80
2019-02-21T11:49:20.319Z,28.90
2019-02-21T11:51:49.505Z,28.30
2019-02-21T11:54:26.863Z,29.10
2019-02-21T11:56:50.775Z,28.03
2019-02-21T11:59:20.138Z,29.20
2019-02-21T12:01:49.430Z,30.23
2019-02-21T12:04:18.632Z,30.47
2019-02-21T12:06:48.309Z,31.57
2019-02-21T12:09:18.521Z,33.50
2019-02-21T12:11:48.382Z,36.17
2019-02-21T12:14:22.294Z,32.83
2019-02-21T12:16:54.643Z,33.37
2019-02-21T12:19:27.371Z,34.23
2019-02-21T12:21:59.394Z,34.97
2019-02-21T12:24:31.428Z,34.80
2019-02-21T12:27:05.350Z,32.67
2019-02-21T12:29:37.910Z,31.93
2019-02-21T12:32:07.590Z,34.57
2019-02-21T12:34:37.464Z,35.73
2019-02-21T12:37:07.322Z,34.17
2019-02-21T12:39:36.674Z,35.80
2019-02-21T12:42:06.430Z,33.97
2019-02-21T12:44:36.213Z,35.07
2019-02-21T12:47:06.000Z,35.20
2019-02-21T12:49:35.815Z,37.03
2019-02-21T12:52:05.081Z,38.30
2019-02-21T12:54:34.903Z,37.20
2019-02-21T12:57:04.630Z,36.63
2019-02-21T12:59:33.900Z,36.40
2019-02-21T13:02:03.094Z,36.37
2019-02-21T13:04:33.457Z,36.27
2019-02-21T13:07:02.813Z,36.83
2019-02-21T13:09:32.070Z,35.40
2019-02-21T13:12:02.964Z,34.47
2019-02-21T13:14:34.375Z,36.30
2019-02-21T13:17:04.169Z,32.17
2019-02-21T13:19:33.879Z,30.23
2019-02-21T13:22:03.729Z,31.40
2019-02-21T13:24:33.323Z,30.57
2019-02-21T13:27:02.618Z,30.23
2019-02-21T13:29:33.287Z,28.67
2019-02-21T13:32:04.078Z,29.37
2019-02-21T13:34:34.330Z,27.87
2019-02-21T13:37:04.215Z,28.27
2019-02-21T13:39:34.323Z,28.60
2019-02-21T13:42:04.133Z,29.90
2019-02-21T13:44:33.906Z,29.00
2019-02-21T13:47:03.777Z,27.17
2019-02-21T13:49:33.028Z,26.50
2019-02-21T13:52:03.771Z,25.87
2019-02-21T13:54:33.443Z,26.83
2019-02-21T13:57:02.728Z,27.73
2019-02-21T13:59:34.788Z,27.30
2019-02-21T14:02:03.428Z,28.07
2019-02-21T14:04:36.338Z,28.17
2019-02-21T14:07:05.658Z,27.83
2019-02-21T14:09:37.763Z,28.07
2019-02-21T14:12:06.594Z,27.73
2019-02-21T14:14:36.531Z,28.70
2019-02-21T14:17:06.696Z,27.93
2019-02-21T14:19:36.503Z,28.00
2019-02-21T14:22:07.014Z,29.10
2019-02-21T14:24:37.292Z,29.43
2019-02-21T14:30:23.447Z,28.87
2019-02-21T14:32:53.164Z,30.50
2019-02-21T14:35:23.979Z,35.37
2019-02-21T14:37:55.445Z,30.07
2019-02-21T14:40:25.449Z,29.47
2019-02-21T14:42:55.387Z,29.07
2019-02-21T14:45:25.809Z,29.17
2019-02-21T14:47:55.106Z,30.03
2019-02-21T14:50:24.555Z,28.90
2019-02-21T14:52:53.986Z,31.27
2019-02-21T14:55:23.730Z,31.03
2019-02-21T14:57:56.588Z,30.97
2019-02-21T15:00:26.024Z,31.90
2019-02-21T15:02:57.635Z,31.73
2019-02-21T15:05:26.777Z,31.00
2019-02-21T15:07:57.140Z,32.57
2019-02-21T15:10:27.252Z,31.40
2019-02-21T15:12:59.373Z,32.33
2019-02-21T15:15:32.166Z,31.00
2019-02-21T15:18:07.453Z,32.90
2019-02-21T15:20:36.858Z,32.30
2019-02-21T15:23:03.297Z,31.67
2019-02-21T15:25:33.677Z,31.60
2019-02-21T15:28:04.443Z,31.73
2019-02-21T15:33:54.809Z,29.80
2019-02-21T15:46:15.223Z,28.83
2019-02-21T15:49:25.983Z,28.30
2019-02-21T15:51:55.457Z,28.80
2019-02-21T15:54:25.023Z,29.83
2019-02-21T15:56:54.248Z,30.67
2019-02-21T15:59:23.865Z,29.40
2019-02-21T16:01:54.173Z,30.27
2019-02-21T16:04:23.319Z,29.60
2019-02-21T16:06:52.489Z,31.43
2019-02-21T16:09:25.317Z,30.00
2019-02-21T16:11:54.844Z,30.47
2019-02-21T16:14:24.664Z,29.43
2019-02-21T16:16:53.875Z,30.67
2019-02-21T16:19:23.695Z,30.07
2019-02-21T16:21:53.398Z,29.20
2019-02-21T16:24:23.078Z,28.70
2019-02-21T16:26:52.290Z,29.10
2019-02-21T16:29:21.408Z,28.23
2019-02-21T16:31:50.636Z,28.17
2019-02-21T16:34:19.729Z,26.87
2019-02-21T16:36:49.382Z,27.63
2019-02-21T16:39:19.061Z,29.20
2019-02-21T16:41:48.787Z,29.47
2019-02-21T16:44:18.512Z,28.40
2019-02-21T16:46:47.826Z,29.63
2019-02-21T16:49:16.960Z,28.20
2019-02-21T16:51:46.708Z,29.20
2019-02-21T16:54:15.966Z,29.03
2019-02-21T16:56:45.657Z,29.47
2019-02-21T16:59:15.019Z,30.07
2019-02-21T17:01:44.312Z,28.30
2019-02-21T17:04:13.934Z,27.77
2019-02-21T17:06:43.955Z,28.70
2019-02-21T17:09:13.734Z,28.90
2019-02-21T17:11:43.528Z,27.37
2019-02-21T17:14:13.315Z,27.73
2019-02-21T17:16:42.627Z,25.90
2019-02-21T17:19:12.230Z,26.60
2019-02-21T17:21:41.864Z,26.33
2019-02-21T17:24:11.115Z,24.17
2019-02-21T17:26:40.750Z,24.47
2019-02-21T17:29:10.037Z,23.67
2019-02-21T17:31:39.582Z,22.97
2019-02-21T17:34:08.877Z,22.80
2019-02-21T17:36:38.021Z,22.27
2019-02-21T17:39:08.044Z,21.50
2019-02-21T17:41:38.682Z,20.93
2019-02-21T17:44:08.261Z,20.10
2019-02-21T17:46:38.023Z,20.27
2019-02-21T17:49:08.554Z,20.33
2019-02-21T17:51:38.604Z,19.87
2019-02-21T17:54:07.863Z,20.27
2019-02-21T17:56:37.531Z,19.13
2019-02-21T17:59:07.258Z,19.43
2019-02-21T18:01:37.927Z,17.27
2019-02-21T18:04:07.767Z,17.20
2019-02-21T18:06:37.543Z,17.87
2019-02-21T18:09:07.579Z,17.03
2019-02-21T18:11:38.348Z,16.80
2019-02-21T18:14:07.950Z,16.47
2019-02-21T18:16:37.629Z,14.80
2019-02-21T18:19:07.287Z,16.17
2019-02-21T18:21:36.994Z,18.63
2019-02-21T18:24:06.210Z,17.97
2019-02-21T18:26:35.415Z,16.53
2019-02-21T18:29:04.683Z,14.77
2019-02-21T18:31:33.959Z,14.63
2019-02-21T18:34:03.186Z,13.53
2019-02-21T18:36:32.306Z,13.87
2019-02-21T18:39:03.494Z,14.87
2019-02-21T18:41:34.772Z,14.57
2019-02-21T18:44:04.611Z,14.37
2019-02-21T18:46:34.298Z,15.03
2019-02-21T18:49:04.034Z,14.90
2019-02-21T18:51:33.313Z,15.33
2019-02-21T18:54:02.954Z,15.77
2019-02-21T18:56:32.456Z,14.47
2019-02-21T18:59:01.604Z,15.40
2019-02-21T19:01:30.751Z,15.50
2019-02-21T19:04:00.039Z,16.07
2019-02-21T19:06:29.226Z,15.80
2019-02-21T19:08:59.466Z,16.93
2019-02-21T19:11:28.742Z,18.93
2019-02-21T19:13:57.967Z,16.73
2019-02-21T19:16:27.718Z,17.63
2019-02-21T19:18:57.667Z,18.10
2019-02-21T19:21:26.981Z,17.03
2019-02-21T19:23:58.476Z,16.73
2019-02-21T19:26:26.954Z,17.60
2019-02-21T19:28:56.097Z,17.47
2019-02-21T19:31:26.067Z,18.20
2019-02-21T19:33:55.375Z,19.03
2019-02-21T19:36:24.567Z,18.77
2019-02-21T19:38:54.268Z,18.93
2019-02-21T19:41:23.519Z,19.87
2019-02-21T19:43:53.182Z,18.73
2019-02-21T19:46:23.466Z,18.77
2019-02-21T19:48:52.697Z,18.60
2019-02-21T19:51:22.443Z,18.27
2019-02-21T19:53:51.769Z,18.03
2019-02-21T19:56:21.405Z,17.40
2019-02-21T19:58:50.781Z,16.03
2019-02-21T20:01:20.066Z,16.33
2019-02-21T20:03:49.219Z,16.53
2019-02-21T20:06:18.358Z,15.40
2019-02-21T20:08:48.126Z,15.97
2019-02-21T20:11:17.934Z,14.90
2019-02-21T20:13:47.292Z,15.60
2019-02-21T20:16:16.866Z,15.23
2019-02-21T20:18:46.056Z,15.43
2019-02-21T20:21:15.885Z,14.53
2019-02-21T20:23:45.325Z,14.20
2019-02-21T20:26:18.460Z,14.03
2019-02-21T20:28:45.684Z,13.33
2019-02-21T20:31:15.337Z,13.80
2019-02-21T20:33:44.979Z,13.23
2019-02-21T20:36:14.214Z,13.70
2019-02-21T20:38:43.786Z,13.27
2019-02-21T20:41:13.513Z,13.43
2019-02-21T20:43:42.790Z,12.63
2019-02-21T20:46:11.938Z,12.87
2019-02-21T20:48:41.119Z,12.33
2019-02-21T20:51:10.520Z,12.57
2019-02-21T20:53:39.724Z,11.97
2019-02-21T20:56:08.841Z,11.93
2019-02-21T20:58:38.120Z,12.00
2019-02-21T21:01:08.519Z,12.20
2019-02-21T21:03:38.129Z,12.07
2019-02-21T21:06:07.754Z,12.80
2019-02-21T21:08:42.966Z,12.70
2019-02-21T21:11:07.896Z,13.87
2019-02-21T21:13:37.018Z,13.87
2019-02-21T21:16:06.610Z,18.20
2019-02-21T21:18:36.302Z,13.93
2019-02-21T21:21:05.579Z,13.13
2019-02-21T21:23:35.711Z,13.60
2019-02-21T21:26:05.480Z,13.80
2019-02-21T21:28:35.217Z,14.20
2019-02-21T21:31:04.600Z,13.40
2019-02-21T21:33:34.122Z,12.80
2019-02-21T21:36:03.739Z,13.37
2019-02-21T21:38:32.952Z,12.97
2019-02-21T21:41:03.691Z,12.93
2019-02-21T21:43:34.078Z,12.77
2019-02-21T21:46:04.758Z,12.70
2019-02-21T21:48:34.522Z,13.93
2019-02-21T21:51:04.332Z,13.23
2019-02-21T21:53:33.566Z,12.83
2019-02-21T21:56:03.257Z,12.93
2019-02-21T21:58:32.929Z,12.00
2019-02-21T22:01:02.135Z,12.63
2019-02-21T22:03:31.754Z,12.30
2019-02-21T22:06:00.991Z,12.63
2019-02-21T22:08:30.106Z,19.50
2019-02-21T22:10:59.281Z,17.07
2019-02-21T22:13:28.477Z,21.97
2019-02-21T22:15:58.170Z,14.10
2019-02-21T22:18:27.438Z,13.10
2019-02-21T22:20:57.168Z,14.00
2019-02-21T22:23:27.530Z,13.90
2019-02-21T22:25:57.310Z,14.43
2019-02-21T22:28:26.548Z,13.73
2019-02-21T22:30:57.937Z,13.97
2019-02-21T22:33:27.528Z,14.63
2019-02-21T22:35:56.783Z,14.77
2019-02-21T22:38:29.060Z,15.50
2019-02-21T22:40:58.625Z,15.23
2019-02-21T22:43:28.315Z,15.40
2019-02-21T22:45:58.168Z,16.70
2019-02-21T22:48:27.902Z,15.70
2019-02-21T22:50:57.690Z,21.00
2019-02-21T22:53:27.469Z,18.63
2019-02-21T22:55:57.304Z,14.17
2019-02-21T22:58:26.847Z,7.57
2019-02-21T23:01:28.531Z,6.20
2019-02-21T23:04:19.550Z,4.90
2019-02-21T23:06:51.131Z,2.97
2019-02-21T23:09:27.444Z,3.10
2019-02-21T23:11:53.912Z,3.20
2019-02-21T23:14:23.727Z,3.33
2019-02-21T23:16:53.507Z,2.17
2019-02-21T23:19:24.203Z,1.80
2019-02-21T23:21:54.471Z,1.50
2019-02-21T23:24:23.719Z,1.40
2019-02-21T23:26:53.267Z,1.20
2019-02-21T23:29:22.910Z,1.23
2019-02-21T23:31:52.291Z,1.17
2019-02-21T23:34:39.093Z,1.17
2019-02-21T23:37:09.804Z,0.90
2019-02-21T23:39:39.467Z,1.10
2019-02-21T23:42:09.137Z,1.03
2019-02-21T23:44:38.807Z,1.40
2019-02-21T23:47:08.437Z,1.40
2019-02-21T23:49:38.119Z,1.50
2019-02-21T23:52:07.843Z,1.50
2019-02-21T23:54:37.491Z,3.10
2019-02-21T23:57:07.133Z,2.00
2019-02-21T23:59:36.467Z,2.10
